Terminal Aerodrome Forecast
Issued by NWS Des Moines, IA

Home | Current Version | Previous Version | Text Only | Print | Product List | Glossary On
Versions: 1 2 3 4 5 6 7 8 9 10 11 12 13 14 15 16 17 18 19 20 21 22 23 24 25 26 27 28 29 30 31 32 33 34 35 36 37 38 39 40
000
FTUS43 KDMX 261920 AAA
TAFALO
TAF AMD
KALO 261920Z 2619/2718 30006KT P6SM VCSH SCT025 BKN120
     FM262300 08002KT 5SM -SHRA BR BKN035
      TEMPO 2623/2701 3SM -TSRA OVC025CB
     FM270200 02007KT P6SM OVC030
     FM270800 26003KT 4SM BR SCT010 BKN025
     FM271300 03011KT P6SM SCT030=

USA.gov is the U.S. government's official web portal to all federal, state and local government web resources and services.